Time;durP1;ratioP1;P1;durP2;ratioP2;P2;SDS_P1;SDS_P2;PMS_P1;PMS_P2;Temp;Humidity;BMP_temperature;BMP_pressure;BME280_temperature;BME280_humidity;BME280_pressure;Samples;Min_cycle;Max_cycle;Signal;HPM_P1;HPM_P2
2021/04/04 00:00:34;;;;;;;22.50;11.97;;;;;;;-0.72;67.18;101459.16;5019724;28;20482;-71
2021/04/04 00:02:59;;;;;;;20.53;11.87;;;;;;;-0.74;68.10;101461.66;5021679;28;20045;-71
2021/04/04 00:05:24;;;;;;;18.43;11.53;;;;;;;-0.74;67.21;101456.47;5022800;28;20033;-71
2021/04/04 00:07:50;;;;;;;21.20;12.37;;;;;;;-0.76;67.18;101454.59;5022282;28;20045;-71
2021/04/04 00:10:18;;;;;;;25.17;14.77;;;;;;;-0.82;67.68;101464.63;5019621;28;20034;-71
2021/04/04 00:12:43;;;;;;;27.53;16.57;;;;;;;-0.89;67.23;101466.91;5019597;28;20530;-71
2021/04/04 00:15:12;;;;;;;25.83;14.70;;;;;;;-0.90;67.70;101467.69;5022658;28;20033;-71
2021/04/04 00:17:37;;;;;;;24.83;12.23;;;;;;;-0.86;68.37;101466.19;5022891;28;20041;-71
2021/04/04 00:20:09;;;;;;;20.97;11.80;;;;;;;-0.88;67.46;101460.91;5020291;28;20037;-70
2021/04/04 00:22:34;;;;;;;26.10;14.43;;;;;;;-0.91;67.96;101467.63;5019669;28;20041;-71
2021/04/04 00:24:59;;;;;;;24.37;13.10;;;;;;;-0.93;68.85;101458.88;5021408;28;20395;-71
2021/04/04 00:27:25;;;;;;;22.30;14.00;;;;;;;-0.92;69.27;101458.97;5022874;28;20046;-71
2021/04/04 00:29:50;;;;;;;25.10;14.63;;;;;;;-0.87;68.40;101456.59;5022039;28;20041;-71
2021/04/04 00:32:15;;;;;;;29.10;16.37;;;;;;;-0.84;68.50;101461.94;5019711;28;20092;-71
2021/04/04 00:34:41;;;;;;;26.93;15.57;;;;;;;-0.78;67.81;101461.41;5018268;28;20093;-71
2021/04/04 00:37:06;;;;;;;25.07;14.10;;;;;;;-0.74;68.85;101458.16;5022989;28;20084;-71
2021/04/04 00:39:31;;;;;;;23.43;12.80;;;;;;;-0.85;68.82;101451.53;5023209;28;20066;-71
2021/04/04 00:41:57;;;;;;;27.90;16.50;;;;;;;-0.97;69.47;101455.22;5024823;28;20044;-71
2021/04/04 00:44:22;;;;;;;22.63;12.87;;;;;;;-1.03;69.49;101457.47;5026732;28;20030;-71
2021/04/04 00:46:47;;;;;;;21.40;10.90;;;;;;;-1.02;68.60;101455.75;5025848;28;20029;-71
2021/04/04 00:49:12;;;;;;;12.57;6.80;;;;;;;-1.02;68.89;101455.75;5023158;28;20045;-71
2021/04/04 00:51:38;;;;;;;11.60;6.43;;;;;;;-1.02;68.76;101454.09;5023099;28;20044;-71
2021/04/04 00:54:08;;;;;;;12.27;6.13;;;;;;;-1.01;68.50;101461.03;5026435;28;20034;-71
2021/04/04 00:56:34;;;;;;;10.70;5.30;;;;;;;-1.05;68.98;101456.47;5026060;28;20033;-71
2021/04/04 00:59:01;;;;;;;10.67;6.30;;;;;;;-1.08;68.05;101456.31;5024237;28;20495;-72
2021/04/04 01:01:27;;;;;;;10.50;5.23;;;;;;;-1.09;68.82;101462.31;5022804;28;20586;-71
2021/04/04 01:03:53;;;;;;;9.70;4.53;;;;;;;-1.10;67.84;101460.53;5023900;28;20046;-71
2021/04/04 01:06:18;;;;;;;8.33;3.93;;;;;;;-1.14;67.88;101461.16;5025979;28;20071;-71
2021/04/04 01:08:44;;;;;;;9.10;4.10;;;;;;;-1.16;68.26;101452.41;5026198;28;20041;-71
2021/04/04 01:11:13;;;;;;;12.53;3.67;;;;;;;-1.15;68.80;101446.44;5022570;28;20040;-71
2021/04/04 01:13:50;;;;;;;9.67;5.07;;;;;;;-1.28;73.08;101451.72;5022786;28;20468;-71
2021/04/04 01:16:26;;;;;;;11.70;7.17;;;;;;;-1.42;70.81;101454.41;5022595;28;20370;-71
2021/04/04 01:19:15;;;;;;;12.17;6.00;;;;;;;-1.49;70.65;101460.06;5023542;28;20042;-71
2021/04/04 01:21:53;;;;;;;9.43;4.77;;;;;;;-1.53;70.59;101449.44;5025922;28;20037;-71
2021/04/04 01:24:35;;;;;;;9.30;5.10;;;;;;;-1.53;70.61;101459.81;5022354;28;20116;-71
2021/04/04 01:27:14;;;;;;;13.73;5.93;;;;;;;-1.57;71.42;101461.34;5032096;28;20068;-71
2021/04/04 01:29:41;;;;;;;10.73;5.47;;;;;;;-1.59;70.99;101461.22;5025830;28;20038;-71
2021/04/04 01:32:06;;;;;;;9.90;4.80;;;;;;;-1.62;71.56;101463.66;5022810;28;20121;-71
2021/04/04 01:34:34;;;;;;;10.17;4.93;;;;;;;-1.68;71.69;101464.97;5022359;28;20199;-71
2021/04/04 01:37:10;;;;;;;8.67;4.40;;;;;;;-1.68;72.12;101470.16;5023915;28;20026;-71
2021/04/04 01:39:50;;;;;;;8.53;4.43;;;;;;;-1.63;72.21;101458.38;5025536;28;20040;-71
2021/04/04 01:42:18;;;;;;;9.57;4.80;;;;;;;-1.58;72.51;101455.25;5022215;28;20129;-71
2021/04/04 01:44:46;;;;;;;8.03;4.67;;;;;;;-1.48;72.22;101455.78;5021676;28;20046;-71
2021/04/04 01:47:12;;;;;;;9.10;4.50;;;;;;;-1.37;72.48;101465.03;5021710;28;20416;-71
2021/04/04 01:49:42;;;;;;;9.33;4.63;;;;;;;-1.36;71.87;101459.97;5021936;28;20038;-71
2021/04/04 01:52:08;;;;;;;7.27;4.20;;;;;;;-1.34;71.83;101453.19;5025014;28;20484;-71
2021/04/04 01:54:34;;;;;;;10.37;5.17;;;;;;;-1.22;71.71;101463.31;5025350;28;20049;-71
2021/04/04 01:57:01;;;;;;;7.30;3.87;;;;;;;-1.14;70.54;101466.34;5025785;28;20411;-71
2021/04/04 01:59:28;;;;;;;8.70;3.57;;;;;;;-1.07;70.48;101462.38;5025177;28;20044;-71
2021/04/04 02:01:55;;;;;;;7.20;3.90;;;;;;;-1.01;70.75;101475.69;5023943;28;20060;-71
2021/04/04 02:04:22;;;;;;;9.37;4.23;;;;;;;-0.95;71.12;101465.66;5021827;28;20041;-71
2021/04/04 02:06:49;;;;;;;9.10;4.00;;;;;;;-0.91;70.43;101465.94;5021796;28;20040;-71
2021/04/04 02:09:16;;;;;;;8.97;3.80;;;;;;;-0.84;70.12;101461.06;5025041;28;20037;-71
2021/04/04 02:11:44;;;;;;;5.77;3.10;;;;;;;-0.75;70.13;101457.28;5025048;28;20033;-71
2021/04/04 02:14:12;;;;;;;8.87;3.53;;;;;;;-0.69;69.48;101459.31;5021653;28;20025;-71
2021/04/04 02:16:42;;;;;;;8.43;3.77;;;;;;;-0.67;69.16;101448.22;5021198;28;20084;-71
2021/04/04 02:19:10;;;;;;;7.60;4.00;;;;;;;-0.65;69.47;101447.44;5024518;28;20563;-71
2021/04/04 02:21:36;;;;;;;9.43;4.10;;;;;;;-0.70;68.88;101444.56;5024680;28;20037;-71
2021/04/04 02:24:04;;;;;;;10.63;4.43;;;;;;;-0.81;69.94;101453.44;5022404;28;20033;-71
2021/04/04 02:26:31;;;;;;;8.33;4.20;;;;;;;-0.88;70.05;101447.94;5021173;28;20445;-71
2021/04/04 02:28:57;;;;;;;7.47;3.60;;;;;;;-0.89;69.80;101453.06;5022758;28;20042;-71
2021/04/04 02:31:24;;;;;;;8.20;3.87;;;;;;;-0.96;69.92;101446.63;5024618;28;20523;-71
2021/04/04 02:33:55;;;;;;;8.13;4.40;;;;;;;-1.11;70.41;101440.59;5024005;28;20132;-71
2021/04/04 02:36:22;;;;;;;7.13;4.00;;;;;;;-1.15;70.11;101443.84;5020843;28;20065;-71
2021/04/04 02:38:52;;;;;;;8.10;4.37;;;;;;;-1.26;69.78;101437.16;5021478;28;20421;-71
2021/04/04 02:41:18;;;;;;;8.47;3.70;;;;;;;-1.40;69.45;101442.47;5024327;28;20041;-71
2021/04/04 02:43:45;;;;;;;7.57;3.80;;;;;;;-1.47;69.93;101440.31;5024345;28;20055;-71
2021/04/04 02:46:14;;;;;;;9.50;4.00;;;;;;;-1.46;70.07;101431.75;5020666;28;20092;-71
2021/04/04 02:48:52;;;;;;;8.70;3.70;;;;;;;-1.55;69.82;101428.63;5020936;28;20045;-71
2021/04/04 02:51:24;;;;;;;7.93;4.13;;;;;;;-1.67;70.53;101430.53;5019501;28;20444;-71
2021/04/04 02:53:52;;;;;;;11.37;4.50;;;;;;;-1.72;70.71;101425.09;5021360;28;20113;-71
2021/04/04 02:56:20;;;;;;;8.17;4.00;;;;;;;-1.79;71.09;101429.00;5023028;28;20033;-71
2021/04/04 02:58:53;;;;;;;7.37;3.87;;;;;;;-1.77;71.50;101430.00;5024086;28;20034;-71
2021/04/04 03:01:19;;;;;;;7.17;3.53;;;;;;;-1.77;70.39;101427.41;5020611;28;20508;-71
2021/04/04 03:03:49;;;;;;;8.87;3.83;;;;;;;-1.80;70.50;101426.34;5020663;28;20420;-71
2021/04/04 03:06:16;;;;;;;10.33;4.07;;;;;;;-1.80;71.61;101429.81;5025080;28;20091;-71
2021/04/04 03:08:46;;;;;;;8.97;4.20;;;;;;;-1.86;71.11;101431.16;5024156;28;20504;-71
2021/04/04 03:11:13;;;;;;;7.07;3.53;;;;;;;-1.97;71.17;101433.13;5020416;28;20129;-71
2021/04/04 03:13:41;;;;;;;8.33;4.00;;;;;;;-2.11;70.57;101436.59;5020503;28;20045;-71
2021/04/04 03:16:07;;;;;;;8.47;4.20;;;;;;;-2.25;71.43;101431.50;5022887;28;20099;-71
2021/04/04 03:18:34;;;;;;;7.00;4.10;;;;;;;-2.28;71.36;101423.56;5023824;28;20053;-71
2021/04/04 03:21:03;;;;;;;8.93;3.73;;;;;;;-2.26;71.38;101432.28;5021641;28;20037;-71
2021/04/04 03:23:29;;;;;;;9.80;4.30;;;;;;;-2.24;72.31;101424.63;5020239;28;20038;-71
2021/04/04 03:25:55;;;;;;;8.13;4.13;;;;;;;-2.25;72.65;101415.97;5021347;28;20029;-71
2021/04/04 03:28:21;;;;;;;8.03;4.20;;;;;;;-2.29;72.10;101411.41;5023606;28;20033;-71
2021/04/04 03:30:47;;;;;;;6.90;3.50;;;;;;;-2.33;72.32;101418.88;5023306;28;20044;-71
2021/04/04 03:33:17;;;;;;;8.03;3.67;;;;;;;-2.39;72.74;101416.84;5020208;28;20065;-71
2021/04/04 03:35:47;;;;;;;8.40;4.33;;;;;;;-2.45;72.77;101413.91;5028088;28;20044;-71
2021/04/04 03:38:14;;;;;;;8.57;4.03;;;;;;;-2.47;73.51;101424.13;5020328;28;20033;-71
2021/04/04 03:40:40;;;;;;;7.87;4.10;;;;;;;-2.54;73.13;101418.50;5020028;28;20038;-71
2021/04/04 03:43:09;;;;;;;6.67;3.80;;;;;;;-2.61;73.21;101418.94;5022743;28;20041;-71
2021/04/04 03:45:35;;;;;;;9.77;4.50;;;;;;;-2.66;72.88;101419.53;5023154;28;20042;-71
2021/04/04 03:48:03;;;;;;;8.30;4.37;;;;;;;-2.66;73.27;101411.78;5021217;28;20084;-71
2021/04/04 03:50:29;;;;;;;8.40;3.87;;;;;;;-2.77;73.04;101418.00;5019647;28;20037;-71
2021/04/04 03:52:55;;;;;;;7.57;3.80;;;;;;;-2.76;74.13;101413.72;5021301;28;20030;-71
2021/04/04 03:55:23;;;;;;;8.23;4.23;;;;;;;-2.77;76.47;101418.00;5023112;28;20450;-71
2021/04/04 03:57:50;;;;;;;7.17;4.03;;;;;;;-2.88;77.19;101416.44;5022759;28;20036;-71
2021/04/04 04:00:20;;;;;;;8.50;4.53;;;;;;;-2.88;76.70;101416.44;5026252;28;20562;-71
2021/04/04 04:02:47;;;;;;;6.97;3.70;;;;;;;-2.83;75.66;101409.84;5021838;28;20037;-71
2021/04/04 04:05:15;;;;;;;7.50;4.50;;;;;;;-2.81;75.89;101416.00;5019504;28;20040;-71
2021/04/04 04:07:42;;;;;;;7.00;3.73;;;;;;;-2.80;76.29;101407.47;5019572;28;20087;-71
2021/04/04 04:10:08;;;;;;;8.10;4.40;;;;;;;-2.84;76.55;101408.06;5022545;28;20029;-71
2021/04/04 04:12:34;;;;;;;11.83;5.10;;;;;;;-2.95;76.62;101406.53;5023072;28;20537;-71
2021/04/04 04:15:00;;;;;;;13.53;5.93;;;;;;;-3.00;78.63;101402.75;5020966;28;20037;-71
2021/04/04 04:17:27;;;;;;;10.77;5.60;;;;;;;-2.95;77.11;101404.84;5019440;28;20030;-71
2021/04/04 04:19:53;;;;;;;9.80;4.30;;;;;;;-2.92;77.10;101405.00;5020300;28;20045;-71
2021/04/04 04:22:20;;;;;;;10.40;4.70;;;;;;;-2.94;76.39;101398.84;5022887;28;20044;-71
2021/04/04 04:24:53;;;;;;;7.90;4.20;;;;;;;-3.00;75.91;101401.06;5022967;28;20037;-71
2021/04/04 04:27:20;;;;;;;9.37;4.20;;;;;;;-3.08;74.71;101403.16;5019265;28;20049;-71
2021/04/04 04:29:50;;;;;;;8.00;3.97;;;;;;;-3.22;75.45;101408.25;5019357;28;20042;-71
2021/04/04 04:32:18;;;;;;;9.87;4.67;;;;;;;-3.28;75.46;101401.00;5019394;28;20038;-71
2021/04/04 04:34:44;;;;;;;11.10;5.07;;;;;;;-3.30;76.33;101402.63;5019444;28;20627;-71
2021/04/04 04:37:14;;;;;;;10.90;4.87;;;;;;;-3.29;75.32;101401.81;5022250;28;20034;-71
2021/04/04 04:39:41;;;;;;;9.10;4.30;;;;;;;-3.26;76.53;101396.84;5022741;28;20090;-71
2021/04/04 04:42:11;;;;;;;10.67;5.03;;;;;;;-3.17;76.45;101401.69;5019030;28;20029;-71
2021/04/04 04:44:41;;;;;;;12.17;4.63;;;;;;;-3.12;76.23;101395.13;5030694;28;20118;-71
2021/04/04 04:47:09;;;;;;;9.13;4.10;;;;;;;-3.09;76.25;101397.94;5021969;28;20073;-71
2021/04/04 04:49:36;;;;;;;10.00;4.20;;;;;;;-3.11;75.88;101391.78;5022579;28;20038;-71
2021/04/04 04:52:01;;;;;;;9.03;4.40;;;;;;;-3.16;74.82;101396.63;5020444;28;20127;-71
2021/04/04 04:54:26;;;;;;;10.43;4.53;;;;;;;-3.16;76.79;101399.22;5019275;28;20098;-71
2021/04/04 04:56:52;;;;;;;9.53;5.17;;;;;;;-3.10;76.99;101389.25;5021156;28;20030;-71
2021/04/04 04:59:17;;;;;;;9.40;4.23;;;;;;;-3.02;76.88;101388.84;5023205;28;20486;-71
2021/04/04 05:01:45;;;;;;;10.43;5.60;;;;;;;-2.96;76.68;101392.72;5022939;28;20041;-70
2021/04/04 05:04:11;;;;;;;11.07;4.90;;;;;;;-2.87;76.31;101390.69;5019074;28;20076;-70
2021/04/04 05:06:37;;;;;;;8.57;4.27;;;;;;;-2.78;75.88;101398.09;5018882;28;20445;-70
2021/04/04 05:09:04;;;;;;;9.23;4.40;;;;;;;-2.71;76.16;101395.09;5021339;28;20033;-70
2021/04/04 05:11:31;;;;;;;12.70;5.13;;;;;;;-2.70;76.97;101402.09;5022390;28;20050;-70
2021/04/04 05:13:56;;;;;;;7.67;4.80;;;;;;;-2.64;76.70;101404.13;5021045;28;20563;-70
2021/04/04 05:16:22;;;;;;;10.63;5.30;;;;;;;-2.59;75.38;101401.81;5018657;28;20133;-70
2021/04/04 05:18:49;;;;;;;9.90;4.90;;;;;;;-2.50;76.16;101400.69;5020376;28;20038;-70
2021/04/04 05:21:23;;;;;;;9.50;5.00;;;;;;;-2.44;75.31;101402.75;5025748;28;20030;-70
2021/04/04 05:23:49;;;;;;;9.07;4.60;;;;;;;-2.34;75.01;101391.25;5025448;28;20037;-70
2021/04/04 05:26:15;;;;;;;10.43;4.93;;;;;;;-2.25;74.98;101397.00;5022379;28;20044;-71
2021/04/04 05:28:41;;;;;;;10.20;5.03;;;;;;;-2.25;74.01;101394.41;5022718;28;20433;-71
2021/04/04 05:31:06;;;;;;;11.37;5.60;;;;;;;-2.17;75.39;101395.75;5025052;28;20052;-71
2021/04/04 05:33:31;;;;;;;13.73;6.83;;;;;;;-2.06;74.85;101401.56;5025968;28;20087;-71
2021/04/04 05:36:02;;;;;;;11.20;6.80;;;;;;;-1.94;74.52;101394.47;5023887;28;20069;-70
2021/04/04 05:38:28;;;;;;;12.37;6.87;;;;;;;-1.82;75.08;101397.78;5028951;28;20056;-70
2021/04/04 05:40:56;;;;;;;9.23;5.97;;;;;;;-1.69;74.08;101398.50;5024423;28;20076;-70
2021/04/04 05:43:25;;;;;;;14.03;7.33;;;;;;;-1.62;74.12;101400.63;5022158;28;20042;-70
2021/04/04 05:46:03;;;;;;;11.67;6.40;;;;;;;-1.52;74.90;101404.63;5022652;28;20038;-70
2021/04/04 05:48:45;;;;;;;16.47;8.87;;;;;;;-1.41;74.54;101414.78;5025549;28;20083;-70
2021/04/04 05:51:39;;;;;;;16.67;8.97;;;;;;;-1.23;74.06;101419.19;5021789;28;20069;-70
2021/04/04 05:54:23;;;;;;;;;;;;;;;-1.09;74.57;101418.28;5025043;28;20490;-70
2021/04/04 05:56:51;;;;;;;11.77;6.63;;;;;;;-0.96;74.46;101410.34;5024655;28;19959;-71
2021/04/04 05:59:26;;;;;;;10.63;6.27;;;;;;;-0.84;74.29;101409.22;5026044;28;20037;-70
2021/04/04 06:02:18;;;;;;;9.63;5.93;;;;;;;-0.71;74.22;101411.66;5024477;28;20034;-71
2021/04/04 06:04:55;;;;;;;9.20;4.80;;;;;;;-0.55;73.87;101413.38;5021701;28;20041;-70
2021/04/04 06:07:45;;;;;;;10.63;5.50;;;;;;;-0.44;73.67;101412.25;5021594;28;20034;-70
2021/04/04 06:10:45;;;;;;;9.27;5.00;;;;;;;-0.31;73.84;101416.38;5021535;28;20547;-70
2021/04/04 06:13:54;;;;;;;16.53;5.53;;;;;;;-0.26;74.04;101412.31;5024958;28;20045;-71
2021/04/04 06:16:30;;;;;;;10.70;5.33;;;;;;;-0.13;73.11;101409.53;5010573;28;20054;-70
2021/04/04 06:19:20;;;;;;;10.03;4.20;;;;;;;0.00;73.19;101411.06;5010859;28;20038;-71
2021/04/04 06:22:24;;;;;;;11.33;5.20;;;;;;;0.11;73.02;101412.47;5018067;28;20129;-70
2021/04/04 06:24:55;;;;;;;7.90;4.83;;;;;;;0.24;72.86;101413.06;5021831;28;20056;-71
2021/04/04 06:27:34;;;;;;;9.07;5.35;;;;;;;0.33;72.00;101410.94;5024839;28;20425;-70
2021/04/04 06:30:20;;;;;;;6.50;4.27;;;;;;;0.42;72.26;101404.50;5021879;28;20127;-70
2021/04/04 06:32:58;;;;;;;7.93;4.47;;;;;;;0.58;71.81;101406.13;5021184;28;20057;-70
2021/04/04 06:35:45;;;;;;;8.17;4.23;;;;;;;0.74;71.50;101414.66;5020945;28;20045;-70
2021/04/04 06:38:24;;;;;;;10.23;4.50;;;;;;;0.90;70.70;101411.09;5021006;28;20034;-70
2021/04/04 06:41:14;;;;;;;9.73;4.50;;;;;;;0.95;71.28;101404.41;5021518;28;20040;-69
2021/04/04 06:44:10;;;;;;;9.37;4.37;;;;;;;1.09;70.74;101408.50;5024502;28;20095;-70
2021/04/04 06:46:54;;;;;;;8.57;4.80;;;;;;;1.22;70.22;101410.84;5020822;28;20049;-70
2021/04/04 06:49:35;;;;;;;8.23;4.80;;;;;;;1.31;70.48;101397.41;5020726;28;20502;-70
2021/04/04 06:52:31;;;;;;;10.63;4.97;;;;;;;1.46;70.29;101391.97;5022870;28;20168;-70
2021/04/04 06:55:05;;;;;;;7.87;4.40;;;;;;;1.61;69.79;101395.25;5022806;28;20033;-70
2021/04/04 06:57:45;;;;;;;8.20;4.43;;;;;;;1.68;68.91;101393.81;5020764;28;20068;-70
2021/04/04 07:00:19;;;;;;;10.47;4.97;;;;;;;1.77;67.84;101382.91;5020674;28;20038;-67
2021/04/04 07:02:56;;;;;;;6.43;4.13;;;;;;;1.84;67.85;101387.56;5028081;28;20034;-70
2021/04/04 07:05:24;;;;;;;7.63;3.83;;;;;;;1.96;67.37;101388.06;5024348;28;20064;-69
2021/04/04 07:08:11;;;;;;;8.27;4.18;;;;;;;2.05;66.68;101378.06;5021101;28;20056;-70
2021/04/04 07:10:54;;;;;;;7.78;3.97;;;;;;;2.12;66.80;101384.38;5023831;28;20099;-70
2021/04/04 07:13:53;;;;;;;8.32;4.38;;;;;;;2.21;66.80;101384.78;5020420;28;20056;-70
2021/04/04 07:16:34;;;;;;;8.18;4.13;;;;;;;2.35;66.63;101380.13;5020187;28;20072;-70
2021/04/04 07:19:31;;;;;;;8.25;4.10;;;;;;;2.50;67.27;101385.97;5022175;28;20042;-70
2021/04/04 07:22:09;;;;;;;8.85;4.57;;;;;;;2.57;66.26;101374.97;5022285;28;20041;-70
2021/04/04 07:25:02;;;;;;;6.32;3.72;;;;;;;2.68;65.84;101377.13;5020276;28;20088;-70
2021/04/04 07:27:45;;;;;;;;;;;;;;;2.74;66.26;101379.97;5020737;28;20036;-70
2021/04/04 07:33:42;;;;;;;7.13;3.58;;;;;;;2.99;65.93;101385.28;5015389;28;20054;-70
2021/04/04 07:36:17;;;;;;;6.43;3.30;;;;;;;3.16;65.05;101372.00;5022753;28;20076;-71
2021/04/04 07:39:08;;;;;;;9.30;3.72;;;;;;;3.27;64.87;101382.00;5023332;28;20029;-70
2021/04/04 07:41:58;;;;;;;5.72;3.35;;;;;;;3.36;64.23;101378.84;5024671;28;20069;-71
2021/04/04 07:44:31;;;;;;;9.55;4.60;;;;;;;3.47;63.93;101380.13;5020049;28;20551;-72
2021/04/04 07:47:19;;;;;;;9.27;4.03;;;;;;;3.62;64.20;101378.91;5021122;28;20477;-70
2021/04/04 07:50:00;;;;;;;9.02;4.30;;;;;;;3.79;63.08;101385.59;5023021;28;20039;-71
2021/04/04 07:52:43;;;;;;;7.85;4.30;;;;;;;3.89;61.96;101385.06;5019846;28;20038;-73
2021/04/04 07:55:11;;;;;;;8.02;3.90;;;;;;;3.93;61.97;101380.88;5022655;28;20484;-69
2021/04/04 07:57:58;;;;;;;7.13;3.40;;;;;;;4.06;61.29;101374.31;5023113;28;20579;-69
2021/04/04 08:00:25;;;;;;;8.45;3.67;;;;;;;4.21;61.50;101367.00;5019695;28;20045;-70
2021/04/04 08:03:26;;;;;;;9.75;3.80;;;;;;;4.73;66.23;101367.78;5020394;28;20049;-62
2021/04/04 08:05:59;;;;;;;12.38;3.75;;;;;;;5.84;64.80;101369.19;5022135;28;20030;-68
2021/04/04 08:08:33;;;;;;;7.10;3.53;;;;;;;6.40;59.56;101359.31;5019674;28;20520;-69
2021/04/04 08:11:04;;;;;;;6.93;3.22;;;;;;;6.64;58.79;101353.75;5021173;28;20037;-68
2021/04/04 08:13:54;;;;;;;11.95;3.95;;;;;;;7.14;56.21;101355.72;5023026;28;20095;-67
2021/04/04 08:16:32;;;;;;;6.68;3.33;;;;;;;6.98;53.96;101357.13;5018090;28;20436;-72
2021/04/04 08:18:58;;;;;;;7.75;2.97;;;;;;;6.58;54.13;101357.13;5021141;28;20489;-72
2021/04/04 08:21:37;;;;;;;6.32;2.92;;;;;;;6.25;54.64;101346.72;5022748;28;20063;-72
2021/04/04 08:24:04;;;;;;;6.90;3.67;;;;;;;6.01;55.18;101351.34;5020804;28;20052;-72
2021/04/04 08:26:43;;;;;;;5.57;3.40;;;;;;;5.89;54.66;101354.50;5019245;28;20041;-74
2021/04/04 08:29:13;;;;;;;7.68;3.13;;;;;;;5.89;55.00;101341.41;5022675;28;20049;-72
2021/04/04 08:31:44;;;;;;;9.40;3.28;;;;;;;5.89;55.08;101349.25;5022657;28;20041;-73
2021/04/04 08:34:19;;;;;;;5.82;3.03;;;;;;;5.92;54.18;101354.56;5019728;28;20034;-72
2021/04/04 08:36:55;;;;;;;6.03;3.03;;;;;;;5.93;52.88;101352.03;5019163;28;20121;-73
2021/04/04 08:39:23;;;;;;;4.57;2.17;;;;;;;5.93;52.00;101351.13;5018316;28;20467;-73
2021/04/04 08:41:48;;;;;;;5.95;3.17;;;;;;;5.99;52.19;101350.41;5019614;28;20041;-72
2021/04/04 08:44:21;;;;;;;5.00;2.83;;;;;;;6.05;52.07;101346.25;5022757;28;20044;-74
2021/04/04 08:46:51;;;;;;;5.35;2.88;;;;;;;6.07;51.25;101352.38;5022474;28;20037;-73
2021/04/04 08:49:18;;;;;;;5.72;2.65;;;;;;;6.11;51.17;101346.38;5019330;28;20040;-75
2021/04/04 08:51:50;;;;;;;6.82;2.50;;;;;;;6.20;50.43;101355.31;5014157;28;20549;-75
2021/04/04 08:54:19;;;;;;;7.85;2.67;;;;;;;6.21;49.78;101362.31;5021278;28;20511;-75
2021/04/04 08:56:51;;;;;;;6.13;2.65;;;;;;;6.17;50.00;101345.66;5022645;28;20402;-75
2021/04/04 08:59:17;;;;;;;7.73;2.47;;;;;;;6.22;50.14;101351.00;5023012;28;20053;-74
2021/04/04 09:01:46;;;;;;;5.60;2.60;;;;;;;6.26;50.51;101342.34;5022822;28;20033;-74
2021/04/04 09:04:12;;;;;;;8.05;2.33;;;;;;;6.30;50.74;101334.59;5023004;28;20112;-75
2021/04/04 09:06:39;;;;;;;6.88;3.45;;;;;;;6.39;49.64;101331.31;5016769;28;20073;-75
2021/04/04 09:09:20;;;;;;;5.68;2.08;;;;;;;6.52;50.06;101332.47;5022744;28;20033;-75
2021/04/04 09:11:49;;;;;;;5.63;2.75;;;;;;;6.62;49.99;101333.59;5022884;28;20037;-75
2021/04/04 09:14:17;;;;;;;7.40;3.72;;;;;;;6.68;50.43;101326.75;5022785;28;20044;-75
2021/04/04 09:16:56;;;;;;;5.75;2.40;;;;;;;6.78;49.74;101314.72;5022385;28;20041;-75
2021/04/04 09:19:26;;;;;;;6.80;2.53;;;;;;;6.91;47.80;101316.75;5022467;28;20091;-75
2021/04/04 09:21:51;;;;;;;5.80;1.98;;;;;;;6.95;47.40;101321.22;5023400;28;20042;-76
2021/04/04 09:24:17;;;;;;;4.85;2.15;;;;;;;7.03;47.67;101326.63;5026004;28;20044;-75
2021/04/04 09:26:43;;;;;;;5.70;2.58;;;;;;;7.01;46.86;101318.72;5025642;28;20115;-75
2021/04/04 09:29:11;;;;;;;4.18;1.73;;;;;;;7.01;46.49;101312.59;5022949;28;20065;-76
2021/04/04 09:31:38;;;;;;;6.70;2.55;;;;;;;7.08;47.67;101313.59;5022356;28;20511;-75
2021/04/04 09:34:13;;;;;;;4.97;1.95;;;;;;;7.06;47.12;101307.44;5024628;28;20037;-75
2021/04/04 09:36:41;;;;;;;7.95;2.25;;;;;;;7.26;48.47;101313.97;5024075;28;20034;-75
2021/04/04 09:39:09;;;;;;;3.58;1.75;;;;;;;7.25;46.28;101304.31;5022848;28;20490;-75
2021/04/04 09:41:36;;;;;;;7.13;2.15;;;;;;;7.36;45.80;101297.56;5022074;28;20092;-75
2021/04/04 09:44:07;;;;;;;5.03;1.60;;;;;;;7.47;46.23;101288.13;5032147;28;20061;-74
2021/04/04 09:46:32;;;;;;;3.97;1.58;;;;;;;7.56;45.91;101292.66;5025198;28;20021;-75
2021/04/04 09:48:57;;;;;;;4.35;1.58;;;;;;;7.61;44.92;101284.88;5029533;28;20518;-75
2021/04/04 09:51:23;;;;;;;5.72;1.58;;;;;;;7.61;45.33;101284.88;5022008;28;20037;-75
2021/04/04 09:53:51;;;;;;;4.20;1.75;;;;;;;7.72;44.88;101277.16;5022302;28;20045;-75
2021/04/04 09:56:19;;;;;;;6.60;1.73;;;;;;;7.92;44.93;101285.41;5025135;28;20033;-75
2021/04/04 09:58:48;;;;;;;5.53;2.10;;;;;;;7.96;44.08;101277.56;5025284;28;20483;-74
2021/04/04 10:01:17;;;;;;;3.70;1.73;;;;;;;8.04;43.83;101281.25;5021679;28;20448;-74
2021/04/04 10:03:59;;;;;;;4.80;2.08;;;;;;;8.06;44.55;101289.13;5021784;28;20044;-74
2021/04/04 10:06:26;;;;;;;5.93;1.88;;;;;;;8.16;43.98;101285.78;5021486;28;20092;-74
2021/04/04 10:08:59;;;;;;;6.93;2.28;;;;;;;8.17;42.66;101290.19;5022571;28;20468;-74
2021/04/04 10:11:27;;;;;;;4.25;1.73;;;;;;;8.25;42.04;101285.94;5023844;28;20060;-75
2021/04/04 10:14:09;;;;;;;4.38;1.60;;;;;;;8.16;41.87;101272.66;5024110;28;20044;-75
2021/04/04 10:16:35;;;;;;;5.20;1.90;;;;;;;8.13;43.09;101273.47;5021214;28;20112;-75
2021/04/04 10:19:13;;;;;;;5.50;1.85;;;;;;;8.32;42.02;101265.88;5023417;28;20120;-75
2021/04/04 10:21:40;;;;;;;4.45;1.85;;;;;;;8.38;42.42;101259.81;5024816;28;20038;-74
2021/04/04 10:24:32;;;;;;;5.18;1.52;;;;;;;8.44;41.95;101252.06;5022139;28;20480;-74
2021/04/04 10:27:16;;;;;;;5.00;1.73;;;;;;;8.54;42.73;101260.09;5022578;28;20041;-74
2021/04/04 10:29:42;;;;;;;4.65;1.52;;;;;;;8.64;41.30;101255.81;5024647;28;20618;-75
2021/04/04 10:32:07;;;;;;;3.90;1.35;;;;;;;8.64;42.26;101240.03;5021849;28;20032;-76
2021/04/04 10:34:43;;;;;;;5.38;1.65;;;;;;;8.78;43.31;101241.09;5021136;28;20480;-74
2021/04/04 10:37:09;;;;;;;4.63;1.60;;;;;;;8.79;41.02;101247.25;5023862;28;20481;-74
2021/04/04 10:39:35;;;;;;;5.68;2.15;;;;;;;8.66;42.39;101238.31;5024714;28;20037;-74
2021/04/04 10:42:14;;;;;;;6.53;1.98;;;;;;;8.73;41.46;101237.53;5022654;28;20044;-73
2021/04/04 10:44:39;;;;;;;5.40;1.65;;;;;;;8.76;41.54;101226.16;5021014;28;20041;-74
2021/04/04 10:47:22;;;;;;;5.53;1.70;;;;;;;8.98;42.42;101236.06;5023169;28;20113;-74
2021/04/04 10:49:49;;;;;;;5.72;2.08;;;;;;;9.19;41.72;101227.53;5024065;28;20087;-75
2021/04/04 10:52:14;;;;;;;6.20;2.22;;;;;;;9.40;41.74;101231.25;5021017;28;20546;-75
2021/04/04 10:54:41;;;;;;;8.88;2.53;;;;;;;9.32;40.55;101223.25;5020816;28;20117;-75
2021/04/04 10:57:08;;;;;;;5.88;2.30;;;;;;;9.19;41.32;101217.00;5023247;28;20041;-73
2021/04/04 10:59:34;;;;;;;6.85;2.22;;;;;;;9.40;41.55;101211.03;5024034;28;20126;-75
2021/04/04 11:02:00;;;;;;;9.80;2.63;;;;;;;9.54;42.13;101213.84;5022393;28;20035;-75
2021/04/04 11:04:30;;;;;;;7.35;2.22;;;;;;;9.57;42.34;101211.22;5020767;28;20037;-74
2021/04/04 11:06:58;;;;;;;8.18;2.53;;;;;;;9.76;41.80;101203.47;5020221;28;20037;-74
2021/04/04 11:09:23;;;;;;;9.90;3.10;;;;;;;10.08;41.72;101199.28;5023967;28;20091;-74
2021/04/04 11:11:52;;;;;;;9.57;3.22;;;;;;;10.24;43.30;101199.41;5023671;28;20041;-74
2021/04/04 11:14:17;;;;;;;7.57;3.10;;;;;;;10.27;41.42;101183.56;5020522;28;20045;-74
2021/04/04 11:16:47;;;;;;;8.60;3.00;;;;;;;10.23;42.10;101192.38;5019632;28;20092;-75
2021/04/04 11:19:14;;;;;;;11.52;3.60;;;;;;;9.86;41.68;101184.22;5020472;28;20060;-74
2021/04/04 11:21:42;;;;;;;9.43;3.20;;;;;;;9.91;41.78;101187.78;5020336;28;20076;-73
2021/04/04 11:24:14;;;;;;;10.75;3.28;;;;;;;10.12;41.28;101180.88;5022995;28;20088;-74
2021/04/04 11:26:48;;;;;;;6.43;3.20;;;;;;;10.35;41.74;101173.09;5022208;28;20034;-74
2021/04/04 11:29:23;;;;;;;8.07;3.20;;;;;;;10.60;40.94;101184.66;5020271;28;20038;-74
2021/04/04 11:31:56;;;;;;;8.75;3.50;;;;;;;10.66;41.90;101176.75;5020475;28;20037;-74
2021/04/04 11:34:23;;;;;;;9.07;3.08;;;;;;;10.86;41.18;101174.19;5023566;28;20044;-74
2021/04/04 11:36:49;;;;;;;6.00;3.20;;;;;;;11.08;40.29;101183.03;5025089;28;20041;-74
2021/04/04 11:39:14;;;;;;;7.82;3.15;;;;;;;10.81;39.63;101171.53;5027277;28;20036;-74
2021/04/04 11:41:53;;;;;;;7.90;3.47;;;;;;;11.01;40.10;101181.28;5027327;28;20408;-72
2021/04/04 11:44:33;;;;;;;11.93;3.72;;;;;;;11.04;40.38;101173.38;5025126;28;20045;-74
2021/04/04 11:47:04;;;;;;;11.57;3.47;;;;;;;11.06;39.72;101168.97;5025257;28;20042;-74
2021/04/04 11:49:29;;;;;;;8.88;3.92;;;;;;;11.40;40.44;101165.50;5025083;28;20037;-74